UAE805 OMDB-OEJN
Flight info
| Callsign | UAE805 |
|---|---|
| Flight time | N/A |
| Altitude | 38000 |
| Route | KUTLI L519 ATUDO M318 GOLGU M550 RIBOT DCT MIGMA DCT ITRUX Y511 ASMIS T218 IMGUT M309 VEMEM |
| Aircraft | A359/H-SDE2E3GHIJ3J4J5LM1ORWXY/LB1D1 |
Departure
| Time | N/A |
|---|---|
| Airport | Dubai International Airport (OMDB) |
Arrival
| Time | 2025-10-27 19:01 |
|---|---|
| Airport | King Abdulaziz International Airport (OEJN) |
| Time | Latitude | Longitude | Altitude | Speed | Heading |
|---|---|---|---|---|---|
| 2025-10-27 16:40 | 24.12996 | 54.32650 | 25772 ft | 421 kts | 243° |
| 2025-10-27 16:41 | 24.07223 | 54.21446 | 26899 ft | 424 kts | 243° |
| 2025-10-27 16:43 | 23.95512 | 53.98947 | 29269 ft | 432 kts | 243° |
| 2025-10-27 16:45 | 23.83296 | 53.75910 | 31432 ft | 444 kts | 243° |
| 2025-10-27 16:47 | 23.70706 | 53.52257 | 33292 ft | 456 kts | 243° |
| 2025-10-27 16:49 | 23.58081 | 53.28463 | 35483 ft | 454 kts | 242° |
| 2025-10-27 16:51 | 23.47073 | 53.07801 | 37767 ft | 447 kts | 242° |
| 2025-10-27 16:53 | 23.33225 | 52.81440 | 37979 ft | 446 kts | 242° |
| 2025-10-27 16:55 | 23.21195 | 52.58069 | 37982 ft | 446 kts | 242° |
| 2025-10-27 16:57 | 23.11058 | 52.29952 | 37984 ft | 445 kts | 251° |
| 2025-10-27 16:59 | 23.03990 | 52.07739 | 37990 ft | 445 kts | 251° |
| 2025-10-27 17:01 | 22.95918 | 51.82537 | 37993 ft | 446 kts | 251° |
| 2025-10-27 17:03 | 22.87780 | 51.57114 | 37991 ft | 446 kts | 251° |
| 2025-10-27 17:05 | 22.84113 | 51.30794 | 37999 ft | 447 kts | 269° |
| 2025-10-27 17:07 | 22.83980 | 51.05682 | 38002 ft | 447 kts | 268° |
| 2025-10-27 17:09 | 22.83741 | 50.78734 | 38005 ft | 446 kts | 268° |
| 2025-10-27 17:11 | 22.83458 | 50.51877 | 38009 ft | 446 kts | 268° |
| 2025-10-27 17:13 | 22.83132 | 50.25184 | 38014 ft | 446 kts | 268° |
| 2025-10-27 17:15 | 22.82759 | 49.98308 | 38021 ft | 446 kts | 268° |
| 2025-10-27 17:17 | 22.82342 | 49.71485 | 38016 ft | 445 kts | 268° |
| 2025-10-27 17:18 | 22.81942 | 49.48165 | 38010 ft | 445 kts | 268° |
| 2025-10-27 17:21 | 22.81378 | 49.18125 | 38008 ft | 445 kts | 268° |
| 2025-10-27 17:23 | 22.80932 | 48.91276 | 38010 ft | 447 kts | 267° |
| 2025-10-27 17:25 | 22.80337 | 48.64585 | 38011 ft | 446 kts | 267° |
| 2025-10-27 17:26 | 22.79779 | 48.41099 | 38003 ft | 445 kts | 266° |
| 2025-10-27 17:28 | 22.79100 | 48.14323 | 38006 ft | 445 kts | 266° |
| 2025-10-27 17:30 | 22.78382 | 47.87762 | 38009 ft | 444 kts | 266° |
| 2025-10-27 17:32 | 22.77615 | 47.61056 | 38019 ft | 443 kts | 266° |
| 2025-10-27 17:35 | 22.76807 | 47.34407 | 38025 ft | 442 kts | 266° |
| 2025-10-27 17:37 | 22.76954 | 47.07946 | 38039 ft | 444 kts | 272° |
| 2025-10-27 17:38 | 22.78774 | 46.84687 | 38048 ft | 443 kts | 272° |
| 2025-10-27 17:41 | 22.81061 | 46.54950 | 38062 ft | 443 kts | 272° |
| 2025-10-27 17:42 | 22.82809 | 46.31679 | 38069 ft | 443 kts | 272° |
| 2025-10-27 17:44 | 22.84503 | 46.08588 | 38064 ft | 442 kts | 272° |
| 2025-10-27 17:46 | 22.86643 | 45.78724 | 38059 ft | 442 kts | 272° |
| 2025-10-27 17:49 | 22.88717 | 45.49010 | 38062 ft | 442 kts | 272° |
| 2025-10-27 17:51 | 22.90526 | 45.22427 | 38079 ft | 443 kts | 272° |
| 2025-10-27 17:53 | 22.92290 | 44.95804 | 38089 ft | 444 kts | 272° |
| 2025-10-27 17:54 | 22.93935 | 44.70329 | 38101 ft | 445 kts | 272° |
| 2025-10-27 17:56 | 22.93179 | 44.43571 | 38100 ft | 444 kts | 266° |
| 2025-10-27 17:58 | 22.92121 | 44.20143 | 38108 ft | 445 kts | 266° |
| 2025-10-27 18:00 | 22.90726 | 43.90175 | 38118 ft | 445 kts | 266° |
| 2025-10-27 18:02 | 22.89595 | 43.66757 | 38128 ft | 445 kts | 266° |
| 2025-10-27 18:04 | 22.88085 | 43.36544 | 38144 ft | 446 kts | 266° |
| 2025-10-27 18:06 | 22.86869 | 43.13016 | 38145 ft | 447 kts | 266° |
| 2025-10-27 18:09 | 22.85243 | 42.82549 | 38151 ft | 447 kts | 266° |
| 2025-10-27 18:10 | 22.83926 | 42.59049 | 38156 ft | 447 kts | 266° |
| 2025-10-27 18:13 | 22.82099 | 42.25560 | 38164 ft | 447 kts | 268° |
| 2025-10-27 18:14 | 22.80931 | 42.05418 | 38168 ft | 447 kts | 267° |
| 2025-10-27 18:17 | 22.78630 | 41.75201 | 38165 ft | 447 kts | 265° |
| 2025-10-27 18:18 | 22.76357 | 41.51748 | 38167 ft | 447 kts | 265° |
| 2025-10-27 18:21 | 22.71096 | 41.22171 | 36171 ft | 458 kts | 251° |
| 2025-10-27 18:22 | 22.63154 | 41.00676 | 34585 ft | 464 kts | 251° |
| 2025-10-27 18:24 | 22.52251 | 40.71258 | 32342 ft | 473 kts | 251° |
| 2025-10-27 18:26 | 22.42613 | 40.45300 | 29774 ft | 461 kts | 250° |
| 2025-10-27 18:28 | 22.33489 | 40.20809 | 25269 ft | 422 kts | 249° |
| 2025-10-27 18:29 | 22.31302 | 40.14965 | 24173 ft | 417 kts | 248° |
| 2025-10-27 18:29 | 22.29144 | 40.09192 | 23162 ft | 408 kts | 248° |
| 2025-10-27 18:30 | 22.28095 | 40.06410 | 23036 ft | 394 kts | 248° |
| 2025-10-27 18:30 | 22.25959 | 40.01335 | 22776 ft | 343 kts | 239° |
| 2025-10-27 18:31 | 22.23505 | 39.97226 | 22469 ft | 340 kts | 237° |
| 2025-10-27 18:31 | 22.20899 | 39.92960 | 22133 ft | 338 kts | 237° |
| 2025-10-27 18:32 | 22.18310 | 39.88723 | 21502 ft | 337 kts | 237° |
| 2025-10-27 18:32 | 22.14475 | 39.82452 | 20443 ft | 332 kts | 237° |
| 2025-10-27 18:33 | 22.11934 | 39.78302 | 19757 ft | 330 kts | 237° |
| 2025-10-27 18:33 | 22.10671 | 39.76239 | 19406 ft | 329 kts | 236° |
| 2025-10-27 18:34 | 22.08227 | 39.72251 | 18751 ft | 326 kts | 236° |
| 2025-10-27 18:34 | 22.05740 | 39.68194 | 17905 ft | 326 kts | 236° |
| 2025-10-27 18:35 | 22.01994 | 39.62096 | 16540 ft | 323 kts | 236° |
| 2025-10-27 18:35 | 22.00755 | 39.60079 | 16125 ft | 321 kts | 236° |
| 2025-10-27 18:36 | 21.98328 | 39.56132 | 15298 ft | 317 kts | 236° |
| 2025-10-27 18:36 | 21.94707 | 39.50232 | 15041 ft | 315 kts | 236° |
| 2025-10-27 18:37 | 21.92752 | 39.46222 | 14889 ft | 301 kts | 243° |
| 2025-10-27 18:37 | 21.91856 | 39.44220 | 14748 ft | 292 kts | 243° |
| 2025-10-27 18:38 | 21.90155 | 39.40405 | 14470 ft | 274 kts | 243° |
| 2025-10-27 18:38 | 21.88549 | 39.36804 | 14081 ft | 263 kts | 243° |
| 2025-10-27 18:39 | 21.86195 | 39.31531 | 12978 ft | 265 kts | 243° |
| 2025-10-27 18:39 | 21.85404 | 39.29760 | 12531 ft | 268 kts | 242° |
| 2025-10-27 18:40 | 21.83759 | 39.26079 | 11260 ft | 270 kts | 242° |
| 2025-10-27 18:40 | 21.79939 | 39.22587 | 9481 ft | 248 kts | 174° |
| 2025-10-27 18:41 | 21.75052 | 39.24342 | 7695 ft | 238 kts | 159° |
| 2025-10-27 18:42 | 21.72128 | 39.25537 | 7129 ft | 215 kts | 159° |
| 2025-10-27 18:42 | 21.69338 | 39.26660 | 6495 ft | 214 kts | 159° |
| 2025-10-27 18:43 | 21.66626 | 39.27742 | 5915 ft | 215 kts | 160° |
| 2025-10-27 18:43 | 21.63805 | 39.28857 | 5367 ft | 215 kts | 160° |
| 2025-10-27 18:44 | 21.60984 | 39.29968 | 4486 ft | 222 kts | 159° |
| 2025-10-27 18:44 | 21.56496 | 39.31754 | 3131 ft | 235 kts | 160° |
| 2025-10-27 18:45 | 21.53586 | 39.32897 | 3028 ft | 207 kts | 160° |
| 2025-10-27 18:45 | 21.52290 | 39.33399 | 3034 ft | 190 kts | 160° |
| 2025-10-27 18:46 | 21.49964 | 39.34305 | 3026 ft | 172 kts | 160° |
| 2025-10-27 18:46 | 21.47700 | 39.35173 | 3022 ft | 172 kts | 160° |
| 2025-10-27 18:47 | 21.45386 | 39.36076 | 3023 ft | 184 kts | 160° |
| 2025-10-27 18:47 | 21.43027 | 39.36995 | 3029 ft | 171 kts | 161° |
| 2025-10-27 18:48 | 21.40835 | 39.37868 | 3028 ft | 166 kts | 159° |
| 2025-10-27 18:48 | 21.37538 | 39.39161 | 3039 ft | 169 kts | 161° |
| 2025-10-27 18:49 | 21.35323 | 39.39470 | 3036 ft | 171 kts | 195° |
| 2025-10-27 18:49 | 21.34330 | 39.38784 | 3035 ft | 173 kts | 226° |
| 2025-10-27 18:50 | 21.33331 | 39.36440 | 3027 ft | 173 kts | 249° |
| 2025-10-27 18:50 | 21.32614 | 39.34048 | 3031 ft | 162 kts | 256° |
| 2025-10-27 18:51 | 21.33073 | 39.31953 | 3032 ft | 144 kts | 312° |
| 2025-10-27 18:51 | 21.34728 | 39.30749 | 3028 ft | 145 kts | 333° |
| 2025-10-27 18:52 | 21.36599 | 39.29925 | 3004 ft | 145 kts | 339° |
| 2025-10-27 18:53 | 21.39485 | 39.28791 | 2286 ft | 141 kts | 339° |
| 2025-10-27 18:53 | 21.41329 | 39.28057 | 2075 ft | 142 kts | 340° |
| 2025-10-27 18:53 | 21.42255 | 39.27687 | 1969 ft | 141 kts | 339° |
| 2025-10-27 18:54 | 21.44089 | 39.26957 | 1798 ft | 140 kts | 340° |
| 2025-10-27 18:55 | 21.46805 | 39.25888 | 1714 ft | 139 kts | 340° |
| 2025-10-27 18:55 | 21.47647 | 39.25558 | 1707 ft | 139 kts | 340° |
| 2025-10-27 18:55 | 21.49463 | 39.24844 | 1707 ft | 139 kts | 340° |
| 2025-10-27 18:56 | 21.51316 | 39.24113 | 1709 ft | 144 kts | 340° |
| 2025-10-27 18:57 | 21.54108 | 39.23008 | 1710 ft | 144 kts | 340° |
| 2025-10-27 18:57 | 21.55989 | 39.22264 | 1704 ft | 142 kts | 340° |
| 2025-10-27 18:57 | 21.56897 | 39.21904 | 1710 ft | 139 kts | 340° |
| 2025-10-27 18:58 | 21.58721 | 39.21185 | 1665 ft | 140 kts | 340° |
| 2025-10-27 18:58 | 21.60546 | 39.20463 | 1308 ft | 138 kts | 340° |
| 2025-10-27 18:59 | 21.62338 | 39.19755 | 967 ft | 136 kts | 340° |
| 2025-10-27 18:59 | 21.64065 | 39.19074 | 647 ft | 133 kts | 339° |
| 2025-10-27 19:00 | 21.65778 | 39.18394 | 298 ft | 130 kts | 339° |
| 2025-10-27 19:01 | 21.68004 | 39.17511 | 52 ft | 42 kts | 342° |
| 2025-10-27 19:01 | 21.68173 | 39.17450 | 51 ft | 24 kts | 341° |
| 2025-10-27 19:02 | 21.68723 | 39.17224 | 50 ft | 32 kts | 331° |
| 2025-10-27 19:02 | 21.68875 | 39.17088 | 51 ft | 25 kts | 311° |
| 2025-10-27 19:03 | 21.68753 | 39.16986 | 52 ft | 16 kts | 160° |
| 2025-10-27 19:03 | 21.68504 | 39.17083 | 53 ft | 22 kts | 159° |
| 2025-10-27 19:04 | 21.68197 | 39.17205 | 52 ft | 26 kts | 160° |
| 2025-10-27 19:04 | 21.67906 | 39.17219 | 49 ft | 16 kts | 169° |
| 2025-10-27 19:05 | 21.67792 | 39.17266 | 49 ft | 19 kts | 160° |
| 2025-10-27 19:05 | 21.67662 | 39.17317 | 54 ft | 21 kts | 160° |
| 2025-10-27 19:06 | 21.67324 | 39.17448 | 53 ft | 12 kts | 161° |
| 2025-10-27 19:06 | 21.67201 | 39.17428 | 52 ft | 11 kts | 245° |
| 2025-10-27 19:07 | 21.67189 | 39.17321 | 49 ft | 6 kts | 305° |
| 2025-10-27 19:07 | 21.67205 | 39.17299 | 49 ft | 0 kts | 307° |